Time;durP1;ratioP1;P1;durP2;ratioP2;P2;SDS_P1;SDS_P2;PMS_P1;PMS_P2;Temp;Humidity;BMP_temperature;BMP_pressure;BME280_temperature;BME280_humidity;BME280_pressure;Samples;Min_cycle;Max_cycle;Signal;HPM_P1;HPM_P2
2023/10/11 00:02:52;;;;;;;11.20;5.40;;;14.80;99.90;;;;;;5028134;28;20068;-82
2023/10/11 00:05:18;;;;;;;10.63;5.85;;;14.80;99.90;;;;;;5030258;28;20021;-82
2023/10/11 00:07:44;;;;;;;9.30;5.55;;;14.80;99.90;;;;;;5027706;28;20032;-83
2023/10/11 00:10:19;;;;;;;9.40;5.70;;;14.80;99.90;;;;;;5032679;28;20021;-83
2023/10/11 00:12:50;;;;;;;10.68;6.55;;;14.80;99.90;;;;;;5026869;28;20026;-83
2023/10/11 00:15:16;;;;;;;9.32;6.18;;;14.80;99.90;;;;;;5030236;28;20030;-82
2023/10/11 00:17:45;;;;;;;10.77;5.93;;;14.80;99.90;;;;;;5031575;28;20090;-83
2023/10/11 00:22:57;;;;;;;7.18;5.53;;;14.70;99.90;;;;;;5030013;28;20068;-82
2023/10/11 00:25:27;;;;;;;9.80;5.35;;;14.70;99.90;;;;;;5031285;28;20037;-82
2023/10/11 00:27:59;;;;;;;8.70;5.45;;;14.70;99.90;;;;;;5031319;28;20025;-83
2023/10/11 00:30:30;;;;;;;6.00;5.05;;;14.70;99.90;;;;;;5031537;28;20029;-82
2023/10/11 00:32:56;;;;;;;9.65;5.18;;;14.70;99.90;;;;;;5032579;28;20688;-84
2023/10/11 00:35:27;;;;;;;8.15;5.50;;;14.60;99.90;;;;;;5028601;28;20497;-82
2023/10/11 00:37:53;;;;;;;7.90;4.70;;;14.60;99.90;;;;;;5031078;28;20473;-82
2023/10/11 00:40:25;;;;;;;8.88;5.50;;;14.60;99.90;;;;;;5031401;28;20507;-83
2023/10/11 00:42:52;;;;;;;10.50;6.50;;;14.60;99.90;;;;;;5033476;28;20029;-84
2023/10/11 00:45:17;;;;;;;10.00;5.60;;;14.60;99.90;;;;;;5030982;28;20023;-84
2023/10/11 00:47:45;;;;;;;8.95;5.55;;;14.60;99.90;;;;;;5048048;28;20093;-83
2023/10/11 00:50:15;;;;;;;10.00;5.82;;;14.60;99.90;;;;;;5033140;28;20207;-83
2023/10/11 00:52:42;;;;;;;10.00;5.32;;;14.60;99.90;;;;;;5035655;28;20038;-83
2023/10/11 00:55:16;;;;;;;9.00;6.00;;;14.60;99.90;;;;;;5038303;28;20025;-82
2023/10/11 00:57:47;;;;;;;10.57;5.93;;;14.60;99.90;;;;;;5037975;28;20026;-83
2023/10/11 01:00:16;;;;;;;8.35;6.05;;;14.60;99.90;;;;;;5035651;28;20017;-83
2023/10/11 01:02:45;;;;;;;7.88;6.20;;;14.60;99.90;;;;;;5039900;28;20148;-85
2023/10/11 01:05:12;;;;;;;7.53;5.70;;;14.60;99.90;;;;;;5031052;28;20025;-83
2023/10/11 01:07:38;;;;;;;8.90;5.68;;;14.60;99.90;;;;;;5036066;28;20322;-83
2023/10/11 01:10:06;;;;;;;9.82;5.35;;;14.60;99.90;;;;;;5034208;28;20109;-84
2023/10/11 01:12:32;;;;;;;7.25;5.45;;;14.60;99.90;;;;;;5035758;28;20105;-83
2023/10/11 01:14:58;;;;;;;7.50;4.70;;;14.60;99.90;;;;;;5031139;28;20026;-83
2023/10/11 01:17:31;;;;;;;10.77;5.45;;;14.60;99.90;;;;;;5032501;28;20025;-83
2023/10/11 01:19:59;;;;;;;11.32;6.00;;;14.60;99.90;;;;;;5031723;28;20029;-82
2023/10/11 01:22:27;;;;;;;9.60;6.03;;;14.60;99.90;;;;;;5032211;28;20497;-82
2023/10/11 01:24:54;;;;;;;12.32;7.00;;;14.60;99.90;;;;;;5033344;28;20021;-84
2023/10/11 01:27:30;;;;;;;9.57;6.35;;;14.50;99.90;;;;;;5029894;28;20010;-82
2023/10/11 01:29:58;;;;;;;8.20;5.87;;;14.50;99.90;;;;;;5034671;28;20457;-83
2023/10/11 01:32:24;;;;;;;7.40;5.68;;;14.50;99.90;;;;;;5028643;28;20284;-83
2023/10/11 01:34:49;;;;;;;11.68;5.93;;;14.50;99.90;;;;;;5034859;28;20025;-82
2023/10/11 01:37:17;;;;;;;9.65;5.10;;;14.50;99.90;;;;;;5031969;28;20037;-83
2023/10/11 01:39:43;;;;;;;10.00;5.35;;;14.50;99.90;;;;;;5027805;28;20030;-84
2023/10/11 01:42:09;;;;;;;6.75;5.03;;;14.50;99.90;;;;;;5033360;28;20084;-82
2023/10/11 01:44:36;;;;;;;8.63;5.25;;;14.50;99.90;;;;;;5041810;28;20436;-83
2023/10/11 01:47:01;;;;;;;8.40;5.22;;;14.50;99.90;;;;;;5045828;28;20026;-83
2023/10/11 01:49:27;;;;;;;7.50;5.78;;;14.50;99.90;;;;;;5038758;28;20036;-83
2023/10/11 01:51:54;;;;;;;9.85;5.38;;;14.40;99.90;;;;;;5033388;28;20029;-83
2023/10/11 01:54:22;;;;;;;8.38;5.57;;;14.40;99.90;;;;;;5032455;28;20033;-83
2023/10/11 01:56:56;;;;;;;6.05;5.00;;;14.40;99.90;;;;;;5034285;28;20148;-83
2023/10/11 01:59:22;;;;;;;8.50;5.75;;;14.40;99.90;;;;;;5031819;28;20025;-83
2023/10/11 02:01:58;;;;;;;10.98;5.47;;;14.40;99.90;;;;;;5034716;28;20017;-83
2023/10/11 02:04:25;;;;;;;8.30;5.50;;;14.40;99.90;;;;;;5033502;28;20075;-83
2023/10/11 02:06:51;;;;;;;11.45;5.85;;;14.40;99.90;;;;;;5033705;28;20041;-83
2023/10/11 02:09:23;;;;;;;8.65;6.00;;;14.30;99.90;;;;;;5034668;28;20485;-83
2023/10/11 02:11:52;;;;;;;8.60;6.00;;;14.30;99.90;;;;;;5031630;28;20044;-84
2023/10/11 02:14:19;;;;;;;7.50;5.53;;;14.30;99.90;;;;;;5034597;28;20018;-83
2023/10/11 02:16:45;;;;;;;7.55;5.32;;;14.30;99.90;;;;;;5035863;28;20547;-84
2023/10/11 02:19:15;;;;;;;6.88;5.10;;;14.30;99.90;;;;;;5035506;28;20029;-83
2023/10/11 02:21:44;;;;;;;8.15;5.43;;;14.20;99.90;;;;;;5042868;28;20541;-83
2023/10/11 02:24:15;;;;;;;7.05;5.15;;;14.20;99.90;;;;;;5036874;28;20025;-84
2023/10/11 02:26:51;;;;;;;7.82;5.10;;;14.20;99.90;;;;;;5042396;28;20025;-83
2023/10/11 02:29:21;;;;;;;9.10;5.73;;;14.20;99.90;;;;;;5033990;28;20021;-83
2023/10/11 02:31:52;;;;;;;9.27;5.68;;;14.20;99.90;;;;;;5042618;28;20021;-84
2023/10/11 02:34:17;;;;;;;13.05;6.35;;;14.20;99.90;;;;;;5038176;28;20025;-83
2023/10/11 02:36:45;;;;;;;8.60;4.75;;;14.20;99.90;;;;;;5045229;28;20029;-84
2023/10/11 02:39:20;;;;;;;7.45;5.28;;;14.20;99.90;;;;;;5038530;28;20017;-83
2023/10/11 02:41:50;;;;;;;9.32;5.38;;;14.20;99.90;;;;;;5035216;28;20021;-83
2023/10/11 02:44:15;;;;;;;6.18;5.22;;;14.20;99.90;;;;;;5037436;28;20576;-84
2023/10/11 02:46:43;;;;;;;8.88;5.65;;;14.20;99.90;;;;;;5039390;28;20033;-84
2023/10/11 02:49:21;;;;;;;12.80;6.00;;;14.20;99.90;;;;;;5042550;28;20093;-84
2023/10/11 02:51:55;;;;;;;8.35;5.28;;;14.20;99.90;;;;;;5046657;28;20032;-84
2023/10/11 02:54:24;;;;;;;8.82;5.68;;;14.20;99.90;;;;;;5035345;28;20025;-86
2023/10/11 02:56:52;;;;;;;10.40;5.50;;;14.20;99.90;;;;;;5037680;28;20076;-84
2023/10/11 02:59:19;;;;;;;8.65;4.88;;;14.30;99.90;;;;;;5039379;28;20021;-82
2023/10/11 03:01:59;;;;;;;6.90;5.22;;;14.30;99.90;;;;;;5042105;28;20036;-83
2023/10/11 03:04:29;;;;;;;9.40;5.88;;;14.30;99.90;;;;;;5038890;28;20059;-82
2023/10/11 03:06:55;;;;;;;9.80;5.45;;;14.30;99.90;;;;;;5048173;28;20021;-83
2023/10/11 03:09:26;;;;;;;8.95;5.03;;;14.30;99.90;;;;;;5039077;28;20034;-83
2023/10/11 03:11:52;;;;;;;10.10;6.57;;;14.30;99.90;;;;;;5038098;28;20021;-83
2023/10/11 03:14:20;;;;;;;9.13;6.07;;;14.30;99.90;;;;;;5035234;28;20037;-84
2023/10/11 03:16:55;;;;;;;10.35;6.63;;;14.20;99.90;;;;;;5036828;28;20075;-82
2023/10/11 03:19:21;;;;;;;8.52;6.18;;;14.30;99.90;;;;;;5039472;28;20087;-83
2023/10/11 03:21:53;;;;;;;12.48;7.03;;;14.30;99.90;;;;;;5040176;28;20429;-81
2023/10/11 03:24:19;;;;;;;8.38;5.93;;;14.20;99.90;;;;;;5036151;28;20041;-82
2023/10/11 03:26:48;;;;;;;8.45;6.35;;;14.20;99.90;;;;;;5034886;28;20025;-82
2023/10/11 03:29:17;;;;;;;11.60;6.70;;;14.30;99.90;;;;;;5035979;28;20033;-82
2023/10/11 03:31:43;;;;;;;11.38;6.20;;;14.30;99.90;;;;;;5039316;28;20029;-83
2023/10/11 03:34:12;;;;;;;9.88;5.75;;;14.30;99.90;;;;;;5036841;28;20026;-84
2023/10/11 03:36:51;;;;;;;10.80;5.72;;;14.30;99.90;;;;;;5037902;28;20029;-82
2023/10/11 03:39:28;;;;;;;10.13;6.70;;;14.30;99.90;;;;;;5037535;28;20400;-84
2023/10/11 03:42:07;;;;;;;10.55;6.30;;;14.30;99.90;;;;;;5037497;28;20465;-83
2023/10/11 03:44:36;;;;;;;10.50;6.50;;;14.30;99.90;;;;;;5036723;28;20018;-81
2023/10/11 03:47:08;;;;;;;9.75;6.53;;;14.30;99.90;;;;;;5035422;28;20025;-84
2023/10/11 03:49:51;;;;;;;9.02;6.70;;;14.30;99.90;;;;;;5034249;28;20660;-83
2023/10/11 03:52:30;;;;;;;12.50;6.50;;;14.30;99.90;;;;;;5036295;28;20035;-83
2023/10/11 03:55:12;;;;;;;10.55;6.28;;;14.30;99.90;;;;;;5039734;28;20021;-83
2023/10/11 03:57:41;;;;;;;9.63;6.35;;;14.30;99.90;;;;;;5037514;28;20083;-82
2023/10/11 04:02:47;;;;;;;10.52;6.57;;;14.30;99.90;;;;;;5036843;28;20253;-83
2023/10/11 04:05:12;;;;;;;9.18;6.32;;;14.30;99.90;;;;;;5035963;28;20025;-83
2023/10/11 04:07:40;;;;;;;13.52;6.85;;;14.30;99.90;;;;;;5036878;28;20021;-83
2023/10/11 04:10:19;;;;;;;7.45;5.65;;;14.30;99.90;;;;;;5034609;28;20573;-83
2023/10/11 04:12:44;;;;;;;9.02;6.70;;;14.30;99.90;;;;;;5036956;28;20068;-83
2023/10/11 04:15:24;;;;;;;13.07;6.75;;;14.30;99.90;;;;;;5037507;28;20029;-83
2023/10/11 04:17:50;;;;;;;11.88;6.45;;;14.30;99.90;;;;;;5034165;28;20017;-83
2023/10/11 04:20:30;;;;;;;12.55;7.25;;;14.30;99.90;;;;;;5033623;28;20033;-84
2023/10/11 04:23:14;;;;;;;9.65;6.85;;;14.30;99.90;;;;;;5035323;28;20357;-83
2023/10/11 04:25:41;;;;;;;10.40;6.53;;;14.20;99.90;;;;;;5036373;28;20022;-83
2023/10/11 04:28:06;;;;;;;8.57;6.25;;;14.20;99.90;;;;;;5034972;28;20018;-83
2023/10/11 04:30:43;;;;;;;10.40;6.80;;;14.20;99.90;;;;;;5033683;28;20032;-83
2023/10/11 04:33:12;;;;;;;9.45;6.75;;;14.20;99.90;;;;;;5029709;28;20485;-84
2023/10/11 04:35:42;;;;;;;11.82;7.00;;;14.20;99.90;;;;;;5033447;28;20429;-83
2023/10/11 04:38:10;;;;;;;12.15;7.05;;;14.20;99.90;;;;;;5033741;28;20120;-82
2023/10/11 04:40:51;;;;;;;9.57;6.93;;;14.30;99.90;;;;;;5033506;28;20026;-83
2023/10/11 04:43:29;;;;;;;13.30;6.78;;;14.20;99.90;;;;;;5032316;28;20053;-84
2023/10/11 04:45:59;;;;;;;8.80;6.15;;;14.20;99.90;;;;;;5032579;28;20049;-82
2023/10/11 04:48:29;;;;;;;9.98;7.22;;;14.20;99.90;;;;;;5035486;28;20030;-82
2023/10/11 04:51:04;;;;;;;11.25;7.07;;;14.20;99.90;;;;;;5033560;28;20033;-84
2023/10/11 04:53:34;;;;;;;13.68;7.68;;;14.20;99.90;;;;;;5031351;28;20429;-84
2023/10/11 04:56:02;;;;;;;14.00;7.63;;;14.20;99.90;;;;;;5031536;28;20060;-83
2023/10/11 04:58:54;;;;;;;10.90;7.35;;;14.20;99.90;;;;;;5032549;28;20017;-83
2023/10/11 05:01:24;;;;;;;10.68;6.50;;;14.20;99.90;;;;;;5029387;28;20112;-83
2023/10/11 05:03:58;;;;;;;11.80;7.25;;;14.30;99.90;;;;;;5033630;28;20104;-83
2023/10/11 05:06:31;;;;;;;11.48;7.07;;;14.30;99.90;;;;;;5034354;28;20017;-85
2023/10/11 05:09:13;;;;;;;11.30;6.90;;;14.20;99.90;;;;;;5031964;28;20018;-83
2023/10/11 05:11:43;;;;;;;14.27;7.43;;;14.30;99.90;;;;;;5035888;28;20660;-83
2023/10/11 05:17:16;;;;;;;15.07;7.82;;;14.20;99.90;;;;;;5036552;28;20397;-83
2023/10/11 05:28:07;;;;;;;14.00;7.10;;;14.10;99.90;;;;;;5035439;28;20448;-83
2023/10/11 05:30:35;;;;;;;14.70;8.63;;;14.10;99.90;;;;;;5034004;28;20024;-83
2023/10/11 05:52:08;;;;;;;10.35;7.47;;;14.20;99.90;;;;;;5034545;28;20033;-83
2023/10/11 05:54:35;;;;;;;11.00;6.82;;;14.20;99.90;;;;;;5032945;28;20025;-83
2023/10/11 05:57:04;;;;;;;11.65;7.03;;;14.20;99.90;;;;;;5034079;28;20080;-83
2023/10/11 05:59:32;;;;;;;11.95;7.38;;;14.20;99.90;;;;;;5031865;28;20025;-83
2023/10/11 06:01:58;;;;;;;11.77;7.50;;;14.30;99.90;;;;;;5031894;28;20029;-84
2023/10/11 06:04:24;;;;;;;10.02;7.15;;;14.30;99.90;;;;;;5031845;28;20029;-83
2023/10/11 06:06:57;;;;;;;12.90;7.28;;;14.30;99.90;;;;;;5032411;28;20021;-83
2023/10/11 06:09:27;;;;;;;11.38;7.05;;;14.30;99.90;;;;;;5032592;28;20036;-84
2023/10/11 06:11:53;;;;;;;10.18;7.03;;;14.30;99.90;;;;;;5032464;28;20032;-82
2023/10/11 06:14:20;;;;;;;10.23;6.03;;;14.30;99.90;;;;;;5034719;28;20025;-82
2023/10/11 06:16:57;;;;;;;10.30;7.28;;;14.30;99.90;;;;;;5034800;28;20638;-83
2023/10/11 06:19:28;;;;;;;9.82;7.75;;;14.40;99.90;;;;;;5033517;28;20040;-82
2023/10/11 06:21:56;;;;;;;11.52;7.30;;;14.40;99.90;;;;;;5036089;28;20025;-83
2023/10/11 06:24:22;;;;;;;11.27;7.22;;;14.40;99.90;;;;;;5036239;28;20460;-83
2023/10/11 06:29:16;;;;;;;9.80;7.07;;;14.50;99.90;;;;;;5037655;28;20028;-83
2023/10/11 06:31:43;;;;;;;10.82;7.97;;;14.40;99.90;;;;;;5035478;28;20025;-83
2023/10/11 06:34:16;;;;;;;10.82;8.07;;;14.50;99.90;;;;;;5036430;28;20512;-82
2023/10/11 06:36:51;;;;;;;14.13;6.90;;;14.50;99.90;;;;;;5029933;28;20037;-83
2023/10/11 06:40:07;;;;;;;14.63;7.43;;;14.50;99.90;;;;;;5044028;28;20018;-83
2023/10/11 06:44:48;;;;;;;12.82;7.85;;;14.60;99.90;;;;;;5034501;28;20600;-82
2023/10/11 06:47:14;;;;;;;11.43;7.15;;;14.60;99.90;;;;;;5034686;28;20025;-82
2023/10/11 06:49:53;;;;;;;18.02;7.75;;;14.70;99.90;;;;;;5034011;28;20474;-82
2023/10/11 06:52:30;;;;;;;9.57;7.25;;;14.70;99.90;;;;;;5034830;28;20422;-82
2023/10/11 06:55:17;;;;;;;11.85;6.75;;;14.80;99.90;;;;;;5035938;28;20155;-83
2023/10/11 06:57:50;;;;;;;;;;;14.80;99.90;;;;;;5028031;28;20025;-82
2023/10/11 07:03:26;;;;;;;11.38;7.32;;;14.80;99.90;;;;;;5030625;28;20461;-81
2023/10/11 07:06:10;;;;;;;16.90;8.30;;;14.90;99.90;;;;;;5034714;28;20075;-83
2023/10/11 07:08:36;;;;;;;13.38;7.78;;;14.90;99.90;;;;;;5028320;28;20064;-82
2023/10/11 07:11:10;;;;;;;12.02;7.30;;;14.90;99.90;;;;;;5034454;28;20259;-83
2023/10/11 07:16:27;;;;;;;13.15;7.55;;;14.90;99.90;;;;;;5036207;28;20033;-83
2023/10/11 07:18:54;;;;;;;16.17;7.47;;;15.00;99.90;;;;;;5033514;28;20032;-82
2023/10/11 07:21:40;;;;;;;18.52;9.20;;;15.00;99.90;;;;;;5027599;28;20400;-84
2023/10/11 07:24:19;;;;;;;12.90;7.38;;;15.00;99.90;;;;;;5033155;28;20025;-81
2023/10/11 07:29:14;;;;;;;9.65;6.75;;;15.10;99.90;;;;;;5035686;28;20053;-82
2023/10/11 07:31:49;;;;;;;12.60;7.65;;;15.10;99.90;;;;;;5030516;28;20033;-84
2023/10/11 07:34:22;;;;;;;13.82;8.02;;;15.20;99.90;;;;;;5033517;28;20024;-84
2023/10/11 07:36:48;;;;;;;12.15;7.85;;;15.20;99.90;;;;;;5034405;28;20516;-83
2023/10/11 07:39:35;;;;;;;10.82;7.05;;;15.20;99.90;;;;;;5031889;28;20029;-83
2023/10/11 07:44:31;;;;;;;11.38;7.30;;;15.20;99.90;;;;;;5032864;28;20258;-82
2023/10/11 07:46:57;;;;;;;12.45;7.13;;;15.20;99.90;;;;;;5033758;28;20018;-84
2023/10/11 07:49:24;;;;;;;13.23;8.02;;;15.30;99.90;;;;;;5031968;28;20102;-83
2023/10/11 07:51:58;;;;;;;17.27;8.93;;;15.30;99.90;;;;;;5032025;28;20446;-82
2023/10/11 07:54:25;;;;;;;13.43;7.80;;;15.30;99.90;;;;;;5032691;28;20482;-81
2023/10/11 07:56:56;;;;;;;18.13;8.55;;;15.30;99.90;;;;;;5031665;28;20017;-83
2023/10/11 07:59:26;;;;;;;12.27;7.78;;;15.40;99.90;;;;;;5032432;28;20382;-83
2023/10/11 08:02:08;;;;;;;15.57;8.40;;;15.40;99.90;;;;;;5031761;28;20064;-83
2023/10/11 08:04:47;;;;;;;13.75;7.78;;;15.40;99.90;;;;;;5029847;28;20021;-82
2023/10/11 08:07:16;;;;;;;11.48;7.30;;;15.40;99.90;;;;;;5033701;28;20032;-83
2023/10/11 08:09:45;;;;;;;13.27;7.75;;;15.40;99.90;;;;;;5032750;28;20021;-83
2023/10/11 08:12:23;;;;;;;15.77;7.57;;;15.50;99.90;;;;;;5028281;28;20013;-83
2023/10/11 08:14:53;;;;;;;16.63;8.57;;;15.50;99.90;;;;;;5031297;28;20017;-82
2023/10/11 08:17:20;;;;;;;14.63;7.68;;;15.50;99.90;;;;;;5028049;28;20045;-83
2023/10/11 08:19:46;;;;;;;14.90;8.27;;;15.50;99.90;;;;;;5027761;28;20086;-83
2023/10/11 08:22:16;;;;;;;11.80;7.50;;;15.50;99.90;;;;;;5031310;28;20096;-83
2023/10/11 08:24:47;;;;;;;15.55;8.73;;;15.60;99.90;;;;;;5032311;28;20104;-84
2023/10/11 08:27:14;;;;;;;16.48;7.68;;;15.60;99.90;;;;;;5029199;28;20168;-84
2023/10/11 08:29:42;;;;;;;10.60;6.43;;;15.60;99.90;;;;;;5030568;28;20025;-83
2023/10/11 08:32:12;;;;;;;14.48;7.45;;;15.60;99.90;;;;;;5030263;28;20029;-83
2023/10/11 08:34:38;;;;;;;11.65;7.72;;;15.60;99.90;;;;;;5029897;28;20492;-82
2023/10/11 08:37:07;;;;;;;12.15;8.05;;;15.70;99.90;;;;;;5030694;28;20048;-82
2023/10/11 08:39:41;;;;;;;12.18;7.75;;;15.70;99.90;;;;;;5030622;28;20032;-83
2023/10/11 08:42:11;;;;;;;15.52;7.75;;;15.70;99.90;;;;;;5030359;28;20593;-83
2023/10/11 08:44:37;;;;;;;11.07;7.50;;;15.80;99.90;;;;;;5030650;28;20033;-84
2023/10/11 08:47:06;;;;;;;15.18;8.20;;;15.80;99.90;;;;;;5033490;28;20029;-85
2023/10/11 08:49:33;;;;;;;11.98;7.60;;;15.80;99.90;;;;;;5033523;28;20116;-83
2023/10/11 08:52:02;;;;;;;13.40;8.75;;;15.80;99.90;;;;;;5034425;28;20018;-82
2023/10/11 08:54:28;;;;;;;13.13;7.65;;;15.80;99.90;;;;;;5033351;28;20072;-83
2023/10/11 08:56:57;;;;;;;15.05;7.72;;;15.90;99.90;;;;;;5031868;28;20017;-82
2023/10/11 08:59:27;;;;;;;19.05;8.50;;;15.90;99.90;;;;;;5036184;28;20025;-81
2023/10/11 09:01:59;;;;;;;12.05;7.97;;;15.90;99.90;;;;;;5032644;28;20108;-84
2023/10/11 09:04:28;;;;;;;17.40;8.63;;;15.90;99.90;;;;;;5030697;28;20588;-83
2023/10/11 09:07:00;;;;;;;12.85;7.78;;;16.00;99.90;;;;;;5034412;28;20028;-84
2023/10/11 09:09:53;;;;;;;18.52;9.55;;;16.00;99.90;;;;;;5032693;28;20113;-83
2023/10/11 09:12:25;;;;;;;16.33;7.55;;;15.90;99.90;;;;;;5033153;28;20026;-84
2023/10/11 09:14:58;;;;;;;20.52;8.13;;;16.00;99.90;;;;;;5033631;28;20029;-82
2023/10/11 09:17:25;;;;;;;15.43;7.63;;;16.00;99.90;;;;;;5032224;28;20048;-83
2023/10/11 09:19:53;;;;;;;14.75;7.45;;;16.00;99.90;;;;;;5034099;28;20025;-83
2023/10/11 09:22:19;;;;;;;12.88;7.45;;;16.00;99.90;;;;;;5030426;28;20025;-83
2023/10/11 09:24:44;;;;;;;17.42;8.25;;;16.00;99.90;;;;;;5030861;28;20684;-84
2023/10/11 09:29:43;;;;;;;15.32;8.20;;;16.00;99.90;;;;;;5034206;28;20057;-84
2023/10/11 09:32:13;;;;;;;16.90;9.45;;;16.00;99.90;;;;;;5032518;28;20022;-82
2023/10/11 09:34:42;;;;;;;18.00;8.35;;;16.10;99.90;;;;;;5032908;28;20021;-85
2023/10/11 09:37:11;;;;;;;12.68;8.25;;;16.00;99.90;;;;;;5032334;28;20177;-84
2023/10/11 09:39:37;;;;;;;15.35;8.07;;;16.10;99.90;;;;;;5032231;28;20051;-82
2023/10/11 09:42:04;;;;;;;18.60;8.88;;;16.10;99.90;;;;;;5033806;28;20033;-83
2023/10/11 09:44:44;;;;;;;13.48;8.27;;;16.10;99.90;;;;;;5020795;28;20049;-83
2023/10/11 09:47:16;;;;;;;11.90;7.90;;;16.10;99.90;;;;;;5032633;28;20021;-84
2023/10/11 09:49:43;;;;;;;11.85;7.57;;;16.10;99.90;;;;;;5031323;28;20036;-83
2023/10/11 09:52:10;;;;;;;11.45;7.35;;;16.10;99.90;;;;;;5031419;28;20018;-82
2023/10/11 09:54:39;;;;;;;14.75;8.85;;;16.10;99.90;;;;;;5038127;28;20488;-82
2023/10/11 09:57:15;;;;;;;16.60;9.00;;;16.10;99.90;;;;;;5034367;28;20028;-83
2023/10/11 10:00:16;;;;;;;13.98;8.55;;;16.10;99.90;;;;;;5035622;28;21454;-83
2023/10/11 10:02:46;;;;;;;11.68;7.20;;;16.10;99.90;;;;;;5033765;28;20033;-83
2023/10/11 10:05:12;;;;;;;16.42;8.80;;;16.10;99.90;;;;;;5035218;28;20014;-81
2023/10/11 10:10:15;;;;;;;10.43;7.25;;;16.10;99.90;;;;;;5034064;28;20045;-82
2023/10/11 10:13:09;;;;;;;11.73;8.30;;;16.10;99.90;;;;;;5034353;28;20481;-82
2023/10/11 10:15:47;;;;;;;12.82;8.45;;;16.10;99.90;;;;;;5034625;28;20048;-82
2023/10/11 10:18:20;;;;;;;13.48;8.43;;;16.10;99.90;;;;;;5033666;28;20112;-83
2023/10/11 10:20:47;;;;;;;14.77;8.65;;;16.10;99.90;;;;;;5033445;28;20389;-84
2023/10/11 10:23:16;;;;;;;16.50;8.23;;;16.10;99.90;;;;;;5032331;28;20482;-82
2023/10/11 10:25:50;;;;;;;14.00;8.80;;;16.10;99.90;;;;;;5035073;28;20022;-82
2023/10/11 10:28:36;;;;;;;13.27;8.98;;;16.10;99.90;;;;;;5035007;28;20605;-83
2023/10/11 10:31:09;;;;;;;;;;;16.10;99.90;;;;;;5032756;28;20056;-83
2023/10/11 10:33:35;;;;;;;16.40;8.80;;;16.10;99.90;;;;;;5030635;28;19911;-84
2023/10/11 10:36:28;;;;;;;18.65;9.68;;;16.10;99.90;;;;;;5045827;28;20034;-82
2023/10/11 10:39:00;;;;;;;13.70;8.45;;;16.10;99.90;;;;;;5030371;28;20163;-82
2023/10/11 10:41:27;;;;;;;15.60;9.38;;;16.10;99.90;;;;;;5031029;28;20041;-82
2023/10/11 10:44:06;;;;;;;18.35;9.73;;;16.10;99.90;;;;;;5033594;28;20024;-84
2023/10/11 10:46:33;;;;;;;19.40;9.82;;;16.10;99.90;;;;;;5035736;28;20043;-83
2023/10/11 10:49:01;;;;;;;15.45;9.25;;;16.10;99.90;;;;;;5029868;28;20029;-83
2023/10/11 10:51:32;;;;;;;19.20;10.75;;;16.10;99.90;;;;;;5035026;28;20112;-84
2023/10/11 10:53:57;;;;;;;20.42;9.77;;;16.10;99.90;;;;;;5035835;28;20104;-84
2023/10/11 10:56:26;;;;;;;18.55;10.20;;;16.10;99.90;;;;;;5035396;28;20075;-83
2023/10/11 10:59:12;;;;;;;15.10;9.93;;;16.10;99.90;;;;;;5034873;28;20473;-84
2023/10/11 11:01:38;;;;;;;16.88;10.38;;;16.10;99.90;;;;;;5033464;28;20056;-82
2023/10/11 11:04:07;;;;;;;15.50;10.70;;;16.10;99.90;;;;;;5033365;28;20167;-82
2023/10/11 11:06:49;;;;;;;16.10;10.52;;;16.10;99.90;;;;;;5035057;28;20024;-82
2023/10/11 11:09:25;;;;;;;17.23;11.35;;;16.00;99.90;;;;;;5031147;28;20041;-84
2023/10/11 11:11:54;;;;;;;;;;;16.00;99.90;;;;;;5030835;28;20043;-82
2023/10/11 11:14:23;;;;;;;16.10;10.50;;;16.00;99.90;;;;;;5035567;28;19931;-82
2023/10/11 11:16:57;;;;;;;20.40;12.02;;;16.00;99.90;;;;;;5029852;28;20042;-83
2023/10/11 11:19:34;;;;;;;18.85;11.43;;;16.00;99.90;;;;;;5036243;28;20391;-83
2023/10/11 11:22:15;;;;;;;16.40;11.00;;;16.00;99.90;;;;;;5028612;28;20021;-83
2023/10/11 11:24:44;;;;;;;17.02;10.82;;;16.00;99.90;;;;;;5033671;28;20036;-82
2023/10/11 11:27:25;;;;;;;14.38;10.95;;;16.00;99.90;;;;;;5037435;28;20393;-83
2023/10/11 11:30:02;;;;;;;14.90;11.95;;;16.00;99.90;;;;;;5035330;28;20029;-82
2023/10/11 11:32:37;;;;;;;14.63;10.95;;;16.00;99.90;;;;;;5039617;28;20025;-83
2023/10/11 11:35:10;;;;;;;14.48;11.63;;;15.90;99.90;;;;;;5033636;28;20036;-83
2023/10/11 11:38:01;;;;;;;18.98;11.35;;;16.00;99.90;;;;;;5031184;28;20039;-83
2023/10/11 11:40:26;;;;;;;18.20;12.27;;;16.00;99.90;;;;;;5037686;28;20022;-83
2023/10/11 11:42:53;;;;;;;15.07;10.27;;;16.00;99.90;;;;;;5031507;28;20048;-85
2023/10/11 11:45:20;;;;;;;25.33;11.93;;;16.00;99.90;;;;;;5032635;28;20462;-82
2023/10/11 11:47:58;;;;;;;17.70;11.27;;;16.10;99.90;;;;;;5031620;28;20400;-83
2023/10/11 11:50:33;;;;;;;16.52;11.88;;;16.10;99.90;;;;;;5030065;28;20029;-83
2023/10/11 11:53:00;;;;;;;21.25;13.15;;;16.10;99.90;;;;;;5035117;28;20047;-85
2023/10/11 11:55:26;;;;;;;19.30;12.50;;;16.20;99.90;;;;;;5037880;28;20064;-84
2023/10/11 11:57:52;;;;;;;17.40;11.55;;;16.30;99.90;;;;;;5030939;28;20041;-82
2023/10/11 12:03:04;;;;;;;17.85;11.60;;;16.40;99.90;;;;;;5029923;28;20018;-83
2023/10/11 12:05:37;;;;;;;16.13;10.98;;;16.50;99.90;;;;;;5032167;28;20075;-84
2023/10/11 12:08:04;;;;;;;15.63;11.45;;;16.50;99.90;;;;;;5031174;28;20072;-83
2023/10/11 12:10:32;;;;;;;17.13;11.50;;;16.60;99.90;;;;;;5030556;28;20651;-83
2023/10/11 12:13:05;;;;;;;18.35;11.20;;;16.60;99.90;;;;;;5031924;28;20024;-83
2023/10/11 12:15:34;;;;;;;14.88;10.98;;;16.70;99.90;;;;;;5029918;28;20022;-82
2023/10/11 12:18:05;;;;;;;15.77;11.13;;;16.70;99.90;;;;;;5029698;28;20113;-82
2023/10/11 12:20:36;;;;;;;15.85;10.23;;;16.70;99.90;;;;;;5030454;28;20028;-84
2023/10/11 12:23:07;;;;;;;14.57;10.48;;;16.70;99.90;;;;;;5033484;28;20022;-82
2023/10/11 12:25:37;;;;;;;14.98;10.48;;;16.70;99.90;;;;;;5031909;28;20029;-84
2023/10/11 12:28:04;;;;;;;15.70;9.85;;;16.60;99.90;;;;;;5035061;28;20022;-83
2023/10/11 12:30:33;;;;;;;14.85;10.15;;;16.60;99.90;;;;;;5030995;28;20450;-84
2023/10/11 12:32:59;;;;;;;15.90;10.20;;;16.70;99.90;;;;;;5033566;28;20496;-82
2023/10/11 12:35:28;;;;;;;15.65;9.10;;;16.70;99.90;;;;;;5033339;28;20033;-83
2023/10/11 12:38:00;;;;;;;14.30;9.68;;;16.80;99.90;;;;;;5039877;28;20110;-81
2023/10/11 12:40:28;;;;;;;13.85;9.23;;;16.80;99.90;;;;;;5038651;28;20021;-82
2023/10/11 12:42:57;;;;;;;13.93;8.70;;;16.80;99.90;;;;;;5042086;28;20051;-84
2023/10/11 12:45:23;;;;;;;16.15;9.77;;;16.90;99.90;;;;;;5039926;28;20048;-83
2023/10/11 12:47:49;;;;;;;17.33;9.95;;;16.90;99.90;;;;;;5038911;28;20021;-83
2023/10/11 12:50:14;;;;;;;13.73;8.45;;;17.00;99.90;;;;;;5039777;28;20244;-83
2023/10/11 12:52:41;;;;;;;11.88;8.35;;;17.10;99.90;;;;;;5038297;28;20052;-82
2023/10/11 12:55:07;;;;;;;11.32;8.57;;;17.20;99.90;;;;;;5028749;28;20033;-82
2023/10/11 12:57:39;;;;;;;11.82;8.93;;;17.30;99.90;;;;;;5037695;28;20041;-83
2023/10/11 13:02:58;;;;;;;10.50;6.85;;;17.40;99.90;;;;;;5036307;28;20036;-83
2023/10/11 13:05:27;;;;;;;9.63;6.25;;;17.40;99.90;;;;;;5038013;28;20076;-82
2023/10/11 13:07:54;;;;;;;10.52;6.85;;;17.40;99.90;;;;;;5036352;28;20044;-82
2023/10/11 13:10:22;;;;;;;11.27;6.63;;;17.40;99.90;;;;;;5040827;28;20455;-82
2023/10/11 13:12:50;;;;;;;9.15;6.30;;;17.40;99.90;;;;;;5039990;28;20610;-83
2023/10/11 13:15:20;;;;;;;10.15;5.65;;;17.50;99.90;;;;;;5032397;28;20595;-82
2023/10/11 13:17:46;;;;;;;6.47;5.35;;;17.40;99.90;;;;;;5037875;28;20033;-83
2023/10/11 13:20:18;;;;;;;8.18;5.70;;;17.40;99.90;;;;;;5034615;28;20091;-83
2023/10/11 13:22:44;;;;;;;8.88;6.07;;;17.40;99.90;;;;;;5035975;28;20116;-82
2023/10/11 13:25:22;;;;;;;12.15;5.95;;;17.40;99.90;;;;;;5034164;28;20607;-83
2023/10/11 13:27:48;;;;;;;8.20;5.88;;;17.30;99.90;;;;;;5039028;28;20079;-83
2023/10/11 13:30:14;;;;;;;7.53;5.53;;;17.30;99.90;;;;;;5031439;28;20044;-83
2023/10/11 13:32:40;;;;;;;13.50;7.53;;;17.20;99.90;;;;;;5036803;28;20013;-83
2023/10/11 13:35:05;;;;;;;9.25;6.95;;;17.20;99.90;;;;;;5034833;28;20036;-82
2023/10/11 13:37:31;;;;;;;7.00;5.38;;;17.20;99.90;;;;;;5035946;28;20017;-82
2023/10/11 13:40:05;;;;;;;9.77;6.00;;;17.20;99.90;;;;;;5036096;28;20062;-82
2023/10/11 13:42:37;;;;;;;9.65;6.25;;;17.30;99.90;;;;;;5034203;28;20281;-84
2023/10/11 13:45:04;;;;;;;10.68;6.90;;;17.30;99.90;;;;;;5036588;28;20074;-84
2023/10/11 13:47:36;;;;;;;8.95;6.30;;;17.30;99.90;;;;;;5033032;28;20053;-84
2023/10/11 13:50:08;;;;;;;9.73;6.03;;;17.30;99.90;;;;;;5034832;28;20556;-83
2023/10/11 13:52:36;;;;;;;10.00;6.40;;;17.30;99.90;;;;;;5033534;28;20079;-82
2023/10/11 13:55:11;;;;;;;10.13;6.30;;;17.40;99.90;;;;;;5033124;28;20017;-82
2023/10/11 13:57:37;;;;;;;9.55;6.50;;;17.50;99.90;;;;;;5034115;28;20026;-82
2023/10/11 14:02:49;;;;;;;8.23;6.15;;;17.50;99.90;;;;;;5035686;28;20071;-85
2023/10/11 14:05:18;;;;;;;11.73;6.18;;;17.60;99.90;;;;;;5032740;28;20009;-84